메인 페이지
METAR-TAF:

METAR-TAF

공항 :

오클랜드 국제공항

오클랜드, 뉴질랜드

위도: 37-01S, 경도: 174-48E, 고도: 7m

현재 날씨관측

예보는 11분 전, 16:30시(UTC)에 발표되었습니다.
남서10kt
온도 12°C
습도 82%
기압 1009 hPa
시정 10km 이상

METAR: NZAA 151630Z AUTO 23010KT 9999 FEW030/// OVC039/// 12/09 Q1009 NOSIG

시각: 04:41 (16:41 UTC)

예보

예보는 5 시간 35분 전, 11:06시(UTC)에 발표되었습니다.
예보 대상 시간: 15일 12시부터 16일 12시까지 (UTC)
서남서12kt
시정 10km 이상
고도 2500ft 상공 구름 조금
고도 4000ft 상공 구름 보통
약한소나기
16일 0000시부터 (UTC)
북서8kt
시정 10km 이상
고도 1800ft 상공 구름 보통
고도 3000ft 상공 구름 많음
약한소나기
일시적
16일 06시부터 16일 10시까지 (UTC)
고도 1400ft 상공 구름 많음
일시적
16일 10시부터 16일 12시까지 (UTC)
시정: 6000m
고도 1200ft 상공 구름 많음
고도 2000ft 상공 구름 조금, 타워링 적운.
소나기

TAF: NZAA 151106Z 1512/1612 24012KT 9999 -SHRA FEW025 SCT040 FM160000 32008KT 9999 -SHRA SCT018 BKN030 TEMPO 1606/1610 BKN014 TEMPO 1610/1612 6000 SHRA BKN012 FEW020TCU

4,000개 이상의 공항 관측 자료 및 예보 (METAR 및 TAF 보고).

지도상에서 검색 가능한 기상관측소가 노란 점과 빨간 점으로 표시되어 있습니다.

기상관측소 명을 보려면 표시 위로 마우스를 이동하세요.

날씨 관측과 예보를 보려면 클릭하세요.

지도 변경 : 확대하려면 엑스 표시가 있는 녹색 버튼, 축소하려면 빼기 표시가 있는 녹색 버튼, 다음 페이지의 지도를 보려면 녹색 화살표를 클릭하세요.


METAR-TAF: